createdAt,value
2023-02-19T00:01:39.234Z,5.41
2023-02-19T00:04:18.170Z,5.39
2023-02-19T00:06:46.573Z,5.43
2023-02-19T00:09:15.427Z,5.44
2023-02-19T00:11:43.080Z,5.46
2023-02-19T00:14:15.275Z,5.43
2023-02-19T00:16:42.193Z,5.44
2023-02-19T00:19:13.619Z,5.44
2023-02-19T00:21:40.490Z,5.42
2023-02-19T00:24:08.248Z,5.45
2023-02-19T00:26:35.605Z,5.42
2023-02-19T00:29:02.951Z,5.17
2023-02-19T00:31:34.964Z,5.12
2023-02-19T00:34:05.228Z,4.99
2023-02-19T00:36:36.147Z,4.99
2023-02-19T00:39:04.969Z,4.93
2023-02-19T00:41:32.141Z,4.92
2023-02-19T00:44:04.422Z,4.93
2023-02-19T00:46:34.501Z,4.92
2023-02-19T00:49:04.166Z,4.95
2023-02-19T00:51:33.732Z,4.95
2023-02-19T00:54:00.524Z,4.88
2023-02-19T00:56:27.535Z,4.74
2023-02-19T00:58:54.502Z,4.76
2023-02-19T01:01:21.625Z,4.78
2023-02-19T01:03:49.174Z,4.79
2023-02-19T01:06:18.269Z,4.81
2023-02-19T01:08:45.660Z,4.79
2023-02-19T01:11:13.755Z,4.82
2023-02-19T01:13:41.370Z,4.79
2023-02-19T01:16:15.161Z,4.82
2023-02-19T01:18:43.229Z,4.83
2023-02-19T01:21:20.968Z,4.84
2023-02-19T01:23:49.592Z,4.90
2023-02-19T01:26:19.725Z,4.94
2023-02-19T01:28:48.526Z,4.97
2023-02-19T01:31:19.109Z,5.01
2023-02-19T01:33:47.447Z,5.04
2023-02-19T01:36:14.860Z,5.03
2023-02-19T01:38:42.129Z,5.01
2023-02-19T01:41:12.969Z,4.96
2023-02-19T01:44:08.119Z,4.98
2023-02-19T01:46:38.286Z,4.96
2023-02-19T01:49:10.901Z,4.94
2023-02-19T01:51:43.766Z,4.93
2023-02-19T01:54:14.136Z,4.90
2023-02-19T01:56:44.174Z,4.90
2023-02-19T01:59:12.890Z,4.86
2023-02-19T02:01:41.270Z,4.84
2023-02-19T02:04:11.196Z,4.84
2023-02-19T02:06:49.999Z,4.82
2023-02-19T02:09:37.996Z,4.79
2023-02-19T02:12:05.174Z,4.79
2023-02-19T02:14:36.616Z,4.79
2023-02-19T02:17:38.539Z,4.88
2023-02-19T02:20:27.955Z,4.90
2023-02-19T02:23:29.377Z,4.92
2023-02-19T02:26:04.721Z,4.92
2023-02-19T02:28:40.709Z,4.94
2023-02-19T02:31:11.504Z,4.95
2023-02-19T02:33:47.824Z,4.90
2023-02-19T02:36:40.380Z,4.96
2023-02-19T02:39:13.036Z,4.95
2023-02-19T02:41:46.036Z,4.96
2023-02-19T02:44:13.313Z,4.96
2023-02-19T02:46:45.145Z,4.93
2023-02-19T02:49:20.454Z,4.93
2023-02-19T02:51:52.278Z,4.96
2023-02-19T02:54:51.964Z,4.90
2023-02-19T02:57:21.571Z,4.87
2023-02-19T02:59:56.657Z,4.77
2023-02-19T03:02:28.786Z,4.81
2023-02-19T03:05:47.476Z,4.75
2023-02-19T03:08:20.840Z,4.71
2023-02-19T03:10:55.513Z,4.64
2023-02-19T03:13:47.462Z,4.60
2023-02-19T03:16:48.038Z,4.59
2023-02-19T03:19:21.423Z,4.60
2023-02-19T03:21:59.971Z,4.62
2023-02-19T03:25:10.721Z,4.60
2023-02-19T03:27:41.871Z,4.57
2023-02-19T03:30:18.627Z,4.59
2023-02-19T03:33:14.593Z,4.57
2023-02-19T03:36:05.539Z,4.53
2023-02-19T03:38:46.626Z,4.47
2023-02-19T03:41:26.611Z,4.41
2023-02-19T03:44:08.601Z,4.35
2023-02-19T03:46:39.634Z,4.33
2023-02-19T03:49:19.151Z,4.30
2023-02-19T03:51:53.977Z,4.26
2023-02-19T03:54:26.404Z,4.22
2023-02-19T03:57:04.129Z,4.18
2023-02-19T03:59:38.633Z,4.11
2023-02-19T04:02:23.888Z,4.12
2023-02-19T04:04:59.277Z,4.15
2023-02-19T04:07:28.383Z,4.25
2023-02-19T04:09:55.674Z,4.31
2023-02-19T04:12:24.529Z,4.46
2023-02-19T04:15:00.231Z,4.69
2023-02-19T04:17:32.424Z,4.88
2023-02-19T04:20:02.274Z,5.06
2023-02-19T04:22:29.766Z,5.32
2023-02-19T04:24:56.930Z,5.53
2023-02-19T04:27:23.743Z,5.74
2023-02-19T04:29:50.531Z,5.94
2023-02-19T04:32:17.436Z,6.08
2023-02-19T04:34:44.450Z,6.22
2023-02-19T04:37:11.567Z,6.35
2023-02-19T04:39:38.334Z,6.43
2023-02-19T04:42:05.611Z,6.52
2023-02-19T04:44:34.612Z,6.65
2023-02-19T04:47:01.706Z,6.69
2023-02-19T04:49:28.755Z,6.75
2023-02-19T04:51:55.585Z,6.79
2023-02-19T05:59:26.750Z,8.52
2023-02-19T06:01:55.464Z,8.54
2023-02-19T06:04:23.612Z,8.58
2023-02-19T06:06:50.967Z,8.68
2023-02-19T06:09:17.940Z,8.77
2023-02-19T06:11:45.343Z,8.86
2023-02-19T06:14:15.158Z,8.95
2023-02-19T06:16:42.538Z,9.04
2023-02-19T06:19:10.036Z,9.11
2023-02-19T06:21:37.122Z,9.17
2023-02-19T06:24:08.522Z,9.24
2023-02-19T06:26:35.897Z,9.28
2023-02-19T06:29:02.798Z,9.32
2023-02-19T06:31:29.853Z,9.37
2023-02-19T06:33:56.821Z,9.47
2023-02-19T06:36:25.322Z,9.66
2023-02-19T06:38:52.414Z,9.69
2023-02-19T06:41:19.457Z,9.78
2023-02-19T06:43:46.806Z,9.86
2023-02-19T06:46:14.250Z,9.83
2023-02-19T06:48:42.908Z,10.00
2023-02-19T06:51:13.387Z,10.06
2023-02-19T07:30:35.711Z,9.17
2023-02-19T07:33:02.886Z,9.26
2023-02-19T07:35:29.744Z,9.37
2023-02-19T07:37:56.668Z,9.50
2023-02-19T07:40:23.496Z,9.62
2023-02-19T07:42:50.400Z,9.72
2023-02-19T07:45:17.524Z,9.82
2023-02-19T07:47:47.586Z,9.96
2023-02-19T07:50:17.604Z,10.06
2023-02-19T07:52:44.430Z,10.20
2023-02-19T07:55:11.376Z,10.34
2023-02-19T07:57:38.246Z,10.43
2023-02-19T08:00:05.458Z,10.56
2023-02-19T08:02:57.618Z,10.63
2023-02-19T08:05:24.705Z,10.77
2023-02-19T08:07:51.882Z,10.87
2023-02-19T08:10:37.276Z,10.97
2023-02-19T08:13:19.501Z,11.12
2023-02-19T08:15:47.155Z,11.23
2023-02-19T08:18:15.347Z,11.28
2023-02-19T08:20:43.045Z,11.57
2023-02-19T08:23:10.636Z,11.89
2023-02-19T08:25:38.839Z,12.16
2023-02-19T08:28:07.183Z,12.39
2023-02-19T08:30:35.227Z,12.72
2023-02-19T08:33:02.626Z,13.04
2023-02-19T08:35:29.831Z,13.40
2023-02-19T08:37:59.664Z,13.48
2023-02-19T08:40:26.745Z,13.68
2023-02-19T08:42:53.674Z,13.86
2023-02-19T08:45:20.539Z,14.10
2023-02-19T08:47:47.553Z,14.38
2023-02-19T08:50:14.406Z,14.57
2023-02-19T08:52:41.299Z,14.72
2023-02-19T08:55:08.725Z,14.77
2023-02-19T08:57:37.784Z,14.94
2023-02-19T09:00:06.787Z,15.00
2023-02-19T09:02:33.786Z,15.03
2023-02-19T09:05:01.040Z,15.31
2023-02-19T09:07:28.574Z,15.46
2023-02-19T09:09:55.558Z,15.69
2023-02-19T09:12:23.688Z,15.65
2023-02-19T09:14:53.297Z,15.49
2023-02-19T09:17:20.154Z,15.59
2023-02-19T09:19:48.944Z,15.63
2023-02-19T09:22:17.203Z,15.61
2023-02-19T09:24:44.819Z,15.48
2023-02-19T09:27:19.478Z,15.52
2023-02-19T09:29:47.226Z,15.61
2023-02-19T09:32:14.756Z,15.76
2023-02-19T09:34:41.902Z,15.66
2023-02-19T09:37:08.925Z,15.56
2023-02-19T09:39:36.053Z,15.45
2023-02-19T09:42:33.189Z,15.44
2023-02-19T09:45:02.001Z,15.65
2023-02-19T09:47:31.558Z,15.80
2023-02-19T09:50:09.881Z,15.79
2023-02-19T09:52:36.663Z,15.94
2023-02-19T09:55:14.567Z,16.17
2023-02-19T09:57:43.212Z,16.23
2023-02-19T10:00:24.108Z,16.20
2023-02-19T10:03:22.056Z,16.07
2023-02-19T10:05:49.093Z,16.03
2023-02-19T10:08:20.658Z,16.15
2023-02-19T10:10:47.567Z,16.20
2023-02-19T10:13:29.832Z,16.37
2023-02-19T10:15:59.225Z,16.49
2023-02-19T10:18:29.563Z,16.44
2023-02-19T10:20:57.922Z,16.49
2023-02-19T10:23:26.128Z,16.61
2023-02-19T10:25:57.350Z,16.69
2023-02-19T10:28:30.197Z,16.84
2023-02-19T10:30:59.585Z,16.50
2023-02-19T10:33:26.966Z,16.52
2023-02-19T10:36:03.913Z,16.47
2023-02-19T10:38:34.473Z,16.51
2023-02-19T10:41:27.869Z,16.54
2023-02-19T10:43:56.370Z,16.54
2023-02-19T10:46:27.022Z,16.49
2023-02-19T10:49:04.148Z,16.48
2023-02-19T10:51:36.482Z,16.65
2023-02-19T10:54:29.237Z,16.76
2023-02-19T10:57:25.573Z,16.87
2023-02-19T10:59:58.918Z,16.96
2023-02-19T11:02:27.367Z,17.16
2023-02-19T11:05:09.538Z,17.30
2023-02-19T11:07:37.701Z,17.29
2023-02-19T11:10:07.343Z,17.40
2023-02-19T11:12:35.436Z,17.40
2023-02-19T11:15:25.483Z,17.43
2023-02-19T11:17:56.710Z,17.47
2023-02-19T11:20:24.375Z,17.46
2023-02-19T11:22:51.716Z,17.47
2023-02-19T11:25:21.084Z,17.87
2023-02-19T11:27:58.319Z,18.23
2023-02-19T11:30:36.014Z,18.46
2023-02-19T11:33:22.278Z,18.82
2023-02-19T11:35:55.565Z,19.01
2023-02-19T11:38:22.619Z,19.09
2023-02-19T11:40:59.628Z,19.05
2023-02-19T11:43:45.159Z,19.00
2023-02-19T11:46:34.955Z,18.95
2023-02-19T11:49:01.978Z,19.05
2023-02-19T11:51:31.986Z,19.01
2023-02-19T11:54:29.536Z,18.81
2023-02-19T11:57:15.096Z,18.89
2023-02-19T11:59:53.123Z,18.95
2023-02-19T12:02:28.708Z,19.08
2023-02-19T12:05:08.449Z,19.28
2023-02-19T12:07:47.317Z,19.28
2023-02-19T12:10:17.139Z,19.56
2023-02-19T12:13:02.217Z,19.49
2023-02-19T12:16:13.638Z,19.18
2023-02-19T12:19:25.368Z,19.36
2023-02-19T12:22:12.231Z,19.30
2023-02-19T12:25:08.174Z,19.38
2023-02-19T12:27:43.887Z,19.13
2023-02-19T12:30:32.059Z,19.40
2023-02-19T12:33:03.339Z,19.24
2023-02-19T12:35:46.600Z,18.57
2023-02-19T12:38:25.228Z,18.55
2023-02-19T12:41:41.440Z,18.78
2023-02-19T12:44:20.291Z,18.89
2023-02-19T12:46:53.092Z,19.08
2023-02-19T12:49:42.528Z,19.27
2023-02-19T12:52:20.744Z,19.36
2023-02-19T12:54:58.137Z,19.42
2023-02-19T12:57:29.963Z,19.36
2023-02-19T13:00:39.586Z,19.21
2023-02-19T13:03:21.176Z,19.17
2023-02-19T13:06:07.620Z,19.10
2023-02-19T13:08:53.022Z,19.36
2023-02-19T13:11:57.047Z,19.68
2023-02-19T13:14:46.713Z,19.42
2023-02-19T13:17:44.073Z,19.46
2023-02-19T13:20:25.068Z,19.43
2023-02-19T13:23:16.733Z,19.57
2023-02-19T13:26:05.088Z,19.26
2023-02-19T13:28:45.382Z,19.37
2023-02-19T13:31:54.375Z,19.40
2023-02-19T13:34:27.029Z,19.61
2023-02-19T13:36:55.577Z,19.84
2023-02-19T13:39:23.506Z,20.02
2023-02-19T13:41:53.471Z,19.97
2023-02-19T13:44:29.022Z,19.81
2023-02-19T13:46:56.713Z,20.15
2023-02-19T13:49:36.823Z,20.06
2023-02-19T13:52:29.680Z,19.71
2023-02-19T13:55:34.433Z,19.59
2023-02-19T13:58:52.282Z,19.26
2023-02-19T14:01:19.535Z,18.99
2023-02-19T14:03:53.654Z,18.58
2023-02-19T14:06:20.945Z,18.47
2023-02-19T14:08:53.580Z,18.36
2023-02-19T14:11:43.047Z,18.11
2023-02-19T14:14:24.960Z,18.16
2023-02-19T14:16:56.139Z,18.23
2023-02-19T14:19:43.381Z,18.71
2023-02-19T14:22:55.669Z,19.19
2023-02-19T14:25:31.969Z,19.75
2023-02-19T14:28:12.091Z,20.22
2023-02-19T14:30:59.214Z,20.73
2023-02-19T14:33:29.660Z,21.32
2023-02-19T14:36:16.955Z,21.09
2023-02-19T14:38:58.290Z,20.74
2023-02-19T14:41:27.412Z,20.55
2023-02-19T14:43:58.648Z,20.33
2023-02-19T14:46:32.644Z,20.09
2023-02-19T14:49:21.792Z,20.20
2023-02-19T14:51:53.986Z,20.29
2023-02-19T14:54:48.440Z,20.37
2023-02-19T14:57:22.276Z,20.61
2023-02-19T14:59:55.270Z,20.61
2023-02-19T15:02:24.117Z,20.37
2023-02-19T15:04:51.055Z,19.82
2023-02-19T15:07:36.529Z,19.66
2023-02-19T15:10:05.965Z,19.33
2023-02-19T15:12:46.166Z,19.14
2023-02-19T15:15:22.397Z,18.95
2023-02-19T15:17:51.096Z,18.73
2023-02-19T15:20:24.672Z,18.45
2023-02-19T15:22:53.126Z,18.27
2023-02-19T15:25:22.520Z,18.12
2023-02-19T15:27:49.937Z,17.94
2023-02-19T15:30:24.702Z,17.79
2023-02-19T15:32:54.527Z,17.60
2023-02-19T15:35:23.406Z,17.51
2023-02-19T15:37:51.732Z,17.36
2023-02-19T15:40:20.430Z,17.24
2023-02-19T15:42:47.900Z,17.10
2023-02-19T15:45:23.905Z,17.01
2023-02-19T15:48:11.006Z,16.91
2023-02-19T15:50:44.471Z,16.79
2023-02-19T15:53:22.051Z,16.61
2023-02-19T15:55:57.878Z,16.46
2023-02-19T15:58:33.140Z,16.35
2023-02-19T16:01:04.253Z,16.30
2023-02-19T16:03:32.253Z,16.19
2023-02-19T16:06:04.427Z,16.09
2023-02-19T16:08:38.505Z,15.95
2023-02-19T16:11:23.560Z,15.79
2023-02-19T16:13:51.196Z,15.73
2023-02-19T16:16:31.685Z,15.68
2023-02-19T16:18:58.670Z,15.59
2023-02-19T16:21:27.861Z,15.49
2023-02-19T16:24:04.010Z,15.40
2023-02-19T16:26:39.376Z,15.26
2023-02-19T16:29:21.845Z,15.17
2023-02-19T16:31:54.825Z,15.11
2023-02-19T16:34:41.506Z,15.02
2023-02-19T16:37:34.585Z,14.88
2023-02-19T16:40:07.671Z,14.81
2023-02-19T16:43:06.898Z,14.73
2023-02-19T16:45:33.935Z,14.60
2023-02-19T16:48:00.872Z,14.52
2023-02-19T16:50:27.893Z,14.45
2023-02-19T16:52:57.172Z,14.38
2023-02-19T16:55:23.978Z,14.31
2023-02-19T16:57:51.182Z,14.23
2023-02-19T17:00:24.061Z,14.21
2023-02-19T17:02:57.300Z,14.18
2023-02-19T17:05:26.556Z,14.17
2023-02-19T17:07:53.635Z,14.09
2023-02-19T17:10:25.837Z,14.05
2023-02-19T17:12:54.384Z,13.98
2023-02-19T17:15:22.399Z,13.96
2023-02-19T17:17:49.685Z,13.91
2023-02-19T17:20:16.547Z,13.88
2023-02-19T17:22:44.408Z,13.84
2023-02-19T17:25:11.431Z,13.81
2023-02-19T17:27:38.269Z,13.81
2023-02-19T17:30:14.166Z,13.78
2023-02-19T17:32:41.182Z,13.75
2023-02-19T17:35:08.506Z,13.64
2023-02-19T17:37:51.855Z,13.47
2023-02-19T17:40:32.860Z,13.36
2023-02-19T17:43:00.693Z,13.29
2023-02-19T17:45:27.684Z,13.23
2023-02-19T17:47:54.614Z,13.17
2023-02-19T17:50:26.624Z,13.11
2023-02-19T17:52:53.677Z,13.11
2023-02-19T17:55:20.684Z,13.02
2023-02-19T17:57:49.069Z,12.92
2023-02-19T18:00:19.397Z,12.87
2023-02-19T18:02:46.320Z,12.87
2023-02-19T18:05:13.437Z,12.90
2023-02-19T18:07:40.766Z,12.92
2023-02-19T18:10:08.591Z,12.89
2023-02-19T18:12:35.866Z,12.87
2023-02-19T18:15:02.743Z,12.81
2023-02-19T18:17:29.660Z,12.81
2023-02-19T18:19:56.667Z,12.80
2023-02-19T18:22:23.552Z,12.79
2023-02-19T18:24:54.056Z,12.81
2023-02-19T18:27:20.889Z,12.79
2023-02-19T18:29:55.727Z,12.81
2023-02-19T18:32:24.769Z,12.84
2023-02-19T18:34:53.674Z,12.84
2023-02-19T18:37:21.901Z,12.83
2023-02-19T18:39:48.890Z,12.78
2023-02-19T18:42:16.101Z,12.80
2023-02-19T18:44:43.509Z,12.77
2023-02-19T18:47:11.645Z,12.76
2023-02-19T18:49:38.578Z,12.74
2023-02-19T18:52:05.924Z,12.70
2023-02-19T18:54:33.135Z,12.66
2023-02-19T18:57:04.564Z,12.62
2023-02-19T18:59:36.422Z,12.58
2023-02-19T19:02:05.227Z,12.52
2023-02-19T19:04:32.185Z,12.48
2023-02-19T19:06:59.087Z,12.42
2023-02-19T19:09:25.948Z,12.39
2023-02-19T19:11:52.876Z,12.36
2023-02-19T19:14:19.950Z,12.33
2023-02-19T19:16:46.840Z,12.32
2023-02-19T19:19:14.792Z,12.30
2023-02-19T19:21:41.676Z,12.28
2023-02-19T19:24:09.282Z,12.29
2023-02-19T19:26:36.168Z,12.25
2023-02-19T19:29:03.128Z,12.21
2023-02-19T19:31:35.775Z,12.17
2023-02-19T19:34:03.428Z,12.12
2023-02-19T19:36:30.373Z,12.06
2023-02-19T19:38:57.415Z,12.03
2023-02-19T19:41:24.311Z,11.98
2023-02-19T19:43:51.210Z,11.93
2023-02-19T19:46:21.572Z,11.86
2023-02-19T19:48:50.723Z,11.82
2023-02-19T19:51:17.841Z,11.77
2023-02-19T19:53:48.109Z,11.75
2023-02-19T19:56:16.024Z,11.75
2023-02-19T19:58:42.915Z,11.74
2023-02-19T20:01:09.997Z,11.73
2023-02-19T20:03:39.780Z,11.75
2023-02-19T20:06:06.988Z,11.74
2023-02-19T20:08:33.765Z,11.74
2023-02-19T20:11:00.593Z,11.74
2023-02-19T20:13:30.584Z,11.75
2023-02-19T20:15:58.004Z,11.75
2023-02-19T20:18:26.122Z,11.73
2023-02-19T20:20:53.069Z,11.68
2023-02-19T20:23:20.564Z,11.73
2023-02-19T20:25:47.360Z,11.72
2023-02-19T20:28:14.273Z,11.66
2023-02-19T20:30:42.193Z,11.71
2023-02-19T20:33:09.568Z,11.71
2023-02-19T20:35:36.468Z,11.70
2023-02-19T20:38:03.288Z,11.71
2023-02-19T20:40:31.514Z,11.77
2023-02-19T20:43:00.910Z,11.80
2023-02-19T20:45:28.631Z,11.82
2023-02-19T20:47:55.488Z,11.80
2023-02-19T20:50:23.508Z,11.79
2023-02-19T20:52:50.384Z,11.80
2023-02-19T20:55:17.313Z,11.77
2023-02-19T20:57:44.154Z,11.75
2023-02-19T21:00:11.596Z,11.73
2023-02-19T21:02:38.515Z,11.66
2023-02-19T21:05:05.685Z,11.51
2023-02-19T21:07:32.556Z,11.49
2023-02-19T21:09:59.445Z,11.50
2023-02-19T21:12:26.336Z,11.49
2023-02-19T21:14:53.277Z,11.39
2023-02-19T21:17:20.248Z,11.38
2023-02-19T21:19:50.050Z,11.34
2023-02-19T21:22:17.115Z,11.32
2023-02-19T21:24:44.724Z,11.32
2023-02-19T21:27:11.728Z,11.28
2023-02-19T21:29:38.587Z,11.28
2023-02-19T21:32:05.868Z,11.25
2023-02-19T21:34:33.008Z,11.21
2023-02-19T21:37:00.107Z,11.18
2023-02-19T21:39:28.273Z,11.07
2023-02-19T21:41:55.156Z,11.08
2023-02-19T21:44:22.006Z,11.07
2023-02-19T21:46:49.102Z,10.99
2023-02-19T21:49:16.909Z,10.94
2023-02-19T21:51:45.300Z,10.89
2023-02-19T21:54:22.081Z,10.80
2023-02-19T21:56:49.032Z,10.81
2023-02-19T21:59:16.275Z,10.75
2023-02-19T22:01:43.573Z,10.73
2023-02-19T22:04:14.788Z,10.72
2023-02-19T22:06:42.552Z,10.69
2023-02-19T22:09:11.091Z,10.66
2023-02-19T22:11:38.363Z,10.64
2023-02-19T22:14:05.227Z,10.63
2023-02-19T22:16:32.184Z,10.59
2023-02-19T22:19:00.069Z,10.51
2023-02-19T22:21:32.457Z,10.50
2023-02-19T22:24:00.701Z,10.46
2023-02-19T22:26:33.988Z,10.39
2023-02-19T22:29:06.049Z,10.35
2023-02-19T22:31:33.662Z,10.27
2023-02-19T22:34:00.558Z,10.21
2023-02-19T22:36:31.174Z,10.17
2023-02-19T22:38:58.096Z,10.14
2023-02-19T22:41:25.536Z,10.16
2023-02-19T22:43:55.669Z,10.17
2023-02-19T22:46:25.011Z,10.20
2023-02-19T22:48:51.759Z,10.17
2023-02-19T22:51:21.108Z,10.19
2023-02-19T22:53:52.242Z,10.18
2023-02-19T22:56:20.707Z,10.16
2023-02-19T22:58:47.685Z,10.11
2023-02-19T23:01:15.092Z,10.10
2023-02-19T23:03:52.825Z,10.07
2023-02-19T23:06:31.823Z,10.05
2023-02-19T23:09:05.480Z,10.02
2023-02-19T23:11:34.756Z,10.06
2023-02-19T23:14:02.166Z,9.98
2023-02-19T23:16:29.436Z,9.97
2023-02-19T23:18:56.276Z,9.95
2023-02-19T23:21:23.394Z,9.89
2023-02-19T23:23:50.292Z,9.86
2023-02-19T23:26:17.509Z,9.83
2023-02-19T23:28:44.864Z,9.79
2023-02-19T23:31:12.556Z,9.78
2023-02-19T23:33:39.528Z,9.76
2023-02-19T23:36:07.031Z,9.73
2023-02-19T23:38:34.130Z,9.65
2023-02-19T23:41:01.430Z,9.64
2023-02-19T23:43:28.818Z,9.61
2023-02-19T23:45:55.910Z,9.59
2023-02-19T23:48:22.766Z,9.58
2023-02-19T23:50:49.629Z,9.57
2023-02-19T23:53:16.555Z,9.57
2023-02-19T23:55:43.376Z,9.58
2023-02-19T23:58:10.273Z,9.55
